createdAt,value
2023-03-10T00:01:27.579Z,11.33
2023-03-10T00:03:57.570Z,11.32
2023-03-10T00:06:28.355Z,11.30
2023-03-10T00:08:59.664Z,11.32
2023-03-10T00:11:28.193Z,11.28
2023-03-10T00:13:56.709Z,11.19
2023-03-10T00:16:28.923Z,11.22
2023-03-10T00:18:58.769Z,11.20
2023-03-10T00:21:30.285Z,11.24
2023-03-10T00:24:01.237Z,11.22
2023-03-10T00:26:30.695Z,11.21
2023-03-10T00:28:59.694Z,11.17
2023-03-10T00:31:31.518Z,11.08
2023-03-10T00:34:02.059Z,11.22
2023-03-10T00:36:31.731Z,11.19
2023-03-10T00:39:02.925Z,11.14
2023-03-10T00:41:36.636Z,11.14
2023-03-10T00:44:05.626Z,11.13
2023-03-10T00:46:34.844Z,11.15
2023-03-10T00:49:03.508Z,11.22
2023-03-10T00:51:33.447Z,11.16
2023-03-10T00:54:04.472Z,11.05
2023-03-10T00:56:32.847Z,11.13
2023-03-10T00:59:02.312Z,11.13
2023-03-10T01:01:33.670Z,11.08
2023-03-10T01:04:04.685Z,11.06
2023-03-10T01:06:33.441Z,11.14
2023-03-10T01:09:04.419Z,11.11
2023-03-10T01:11:33.529Z,11.07
2023-03-10T01:14:04.144Z,11.14
2023-03-10T01:16:32.363Z,11.14
2023-03-10T01:19:01.063Z,11.14
2023-03-10T01:21:32.525Z,11.21
2023-03-10T01:24:02.521Z,11.20
2023-03-10T01:26:31.962Z,11.19
2023-03-10T01:29:00.456Z,11.13
2023-03-10T01:31:29.102Z,11.09
2023-03-10T01:33:57.369Z,11.08
2023-03-10T01:36:27.843Z,10.98
2023-03-10T01:38:57.802Z,10.95
2023-03-10T01:41:27.658Z,10.96
2023-03-10T01:43:57.295Z,10.90
2023-03-10T01:46:46.848Z,10.66
2023-03-10T01:49:38.726Z,10.71
2023-03-10T01:52:12.117Z,10.66
2023-03-10T01:54:46.948Z,10.71
2023-03-10T01:57:20.673Z,10.53
2023-03-10T01:59:50.040Z,10.68
2023-03-10T02:02:18.944Z,10.56
2023-03-10T02:04:50.813Z,10.55
2023-03-10T02:07:21.222Z,10.45
2023-03-10T02:09:52.247Z,10.51
2023-03-10T02:12:22.352Z,10.41
2023-03-10T02:14:54.490Z,10.47
2023-03-10T02:17:25.205Z,10.39
2023-03-10T02:20:08.910Z,10.28
2023-03-10T02:22:38.614Z,10.31
2023-03-10T02:25:20.260Z,10.30
2023-03-10T02:27:51.187Z,10.23
2023-03-10T02:30:25.120Z,10.30
2023-03-10T02:32:56.811Z,10.14
2023-03-10T02:35:26.029Z,10.25
2023-03-10T02:37:56.018Z,10.11
2023-03-10T02:40:34.198Z,10.21
2023-03-10T02:43:09.099Z,10.21
2023-03-10T02:45:42.314Z,10.20
2023-03-10T02:48:13.319Z,10.21
2023-03-10T02:50:47.624Z,10.19
2023-03-10T02:53:26.666Z,10.17
2023-03-10T02:55:56.343Z,10.07
2023-03-10T02:58:33.467Z,10.02
2023-03-10T03:01:02.963Z,10.08
2023-03-10T03:03:32.358Z,9.92
2023-03-10T03:06:02.522Z,10.09
2023-03-10T03:08:31.358Z,10.08
2023-03-10T03:11:00.325Z,10.12
2023-03-10T03:13:30.910Z,9.95
2023-03-10T03:15:59.643Z,9.93
2023-03-10T03:18:28.710Z,9.88
2023-03-10T03:20:57.203Z,9.85
2023-03-10T03:23:25.506Z,9.81
2023-03-10T03:25:54.255Z,9.89
2023-03-10T03:28:22.386Z,9.87
2023-03-10T03:30:52.508Z,9.87
2023-03-10T03:33:20.621Z,9.85
2023-03-10T03:35:49.413Z,9.85
2023-03-10T03:38:18.047Z,9.90
2023-03-10T03:40:46.612Z,9.85
2023-03-10T03:43:15.727Z,9.92
2023-03-10T03:45:43.940Z,9.87
2023-03-10T03:48:16.283Z,9.87
2023-03-10T03:50:44.673Z,9.92
2023-03-10T03:53:13.522Z,9.98
2023-03-10T03:55:41.906Z,10.06
2023-03-10T03:58:10.204Z,10.18
2023-03-10T04:00:40.329Z,9.94
2023-03-10T04:03:08.821Z,9.95
2023-03-10T04:05:38.856Z,10.10
2023-03-10T04:08:09.253Z,10.09
2023-03-10T04:10:37.761Z,9.87
2023-03-10T04:13:05.847Z,10.04
2023-03-10T04:15:34.252Z,10.04
2023-03-10T04:18:02.592Z,10.13
2023-03-10T04:20:31.064Z,10.11
2023-03-10T04:23:02.318Z,10.07
2023-03-10T04:25:30.596Z,9.94
2023-03-10T04:27:59.167Z,9.91
2023-03-10T04:30:30.055Z,9.89
2023-03-10T04:33:00.997Z,9.91
2023-03-10T04:35:29.729Z,9.79
2023-03-10T04:37:58.374Z,9.90
2023-03-10T04:40:31.628Z,10.08
2023-03-10T04:43:02.884Z,9.90
2023-03-10T04:45:31.443Z,9.92
2023-03-10T04:47:59.676Z,9.92
2023-03-10T04:50:28.335Z,10.06
2023-03-10T04:52:56.413Z,10.06
2023-03-10T04:55:25.077Z,10.02
2023-03-10T04:57:57.948Z,10.01
2023-03-10T05:00:27.098Z,10.01
2023-03-10T05:02:55.816Z,9.78
2023-03-10T05:05:24.154Z,9.64
2023-03-10T05:07:52.483Z,9.69
2023-03-10T05:10:21.070Z,9.79
2023-03-10T05:12:49.224Z,9.83
2023-03-10T05:15:19.570Z,9.83
2023-03-10T05:17:50.016Z,9.82
2023-03-10T05:20:19.240Z,9.70
2023-03-10T05:22:47.651Z,9.68
2023-03-10T05:25:16.459Z,9.68
2023-03-10T05:27:45.218Z,9.79
2023-03-10T05:30:16.250Z,9.73
2023-03-10T05:32:47.102Z,9.75
2023-03-10T05:35:16.352Z,9.91
2023-03-10T05:37:45.501Z,9.89
2023-03-10T05:40:19.693Z,9.79
2023-03-10T05:42:48.034Z,9.60
2023-03-10T05:45:17.455Z,9.75
2023-03-10T05:47:48.388Z,9.91
2023-03-10T05:50:17.438Z,9.79
2023-03-10T05:52:45.937Z,9.79
2023-03-10T05:55:16.840Z,9.83
2023-03-10T05:57:45.249Z,9.81
2023-03-10T06:00:16.191Z,9.93
2023-03-10T06:02:44.876Z,9.92
2023-03-10T06:05:17.249Z,9.86
2023-03-10T06:07:45.590Z,9.75
2023-03-10T06:10:13.873Z,9.84
2023-03-10T06:12:42.278Z,9.92
2023-03-10T06:15:11.431Z,9.81
2023-03-10T06:17:39.812Z,9.85
2023-03-10T06:20:08.871Z,9.84
2023-03-10T06:22:38.458Z,9.95
2023-03-10T06:25:07.772Z,9.94
2023-03-10T06:27:36.193Z,10.00
2023-03-10T06:30:04.678Z,10.04
2023-03-10T06:32:33.261Z,10.09
2023-03-10T06:35:01.712Z,10.13
2023-03-10T06:37:30.139Z,10.20
2023-03-10T06:39:59.695Z,10.23
2023-03-10T06:42:28.422Z,10.23
2023-03-10T06:44:56.889Z,10.14
2023-03-10T06:47:25.348Z,10.08
2023-03-10T06:49:55.529Z,10.04
2023-03-10T06:52:24.494Z,10.10
2023-03-10T06:54:52.806Z,10.07
2023-03-10T06:57:22.930Z,10.04
2023-03-10T06:59:51.009Z,10.04
2023-03-10T07:02:20.052Z,10.11
2023-03-10T07:04:48.867Z,10.15
2023-03-10T07:07:17.098Z,10.12
2023-03-10T07:09:47.346Z,10.09
2023-03-10T07:12:15.742Z,10.12
2023-03-10T07:14:45.738Z,10.06
2023-03-10T07:17:14.057Z,10.00
2023-03-10T07:19:42.182Z,9.96
2023-03-10T07:22:11.465Z,10.05
2023-03-10T07:24:39.966Z,10.00
2023-03-10T07:27:08.397Z,9.97
2023-03-10T07:29:37.721Z,9.99
2023-03-10T07:32:08.954Z,10.04
2023-03-10T07:34:37.540Z,10.03
2023-03-10T07:37:07.124Z,10.03
2023-03-10T07:39:35.462Z,10.06
2023-03-10T07:42:03.715Z,10.09
2023-03-10T07:44:32.036Z,10.02
2023-03-10T07:47:00.513Z,10.08
2023-03-10T07:49:33.636Z,10.14
2023-03-10T07:52:01.791Z,10.15
2023-03-10T07:54:30.258Z,10.23
2023-03-10T07:56:58.438Z,10.22
2023-03-10T07:59:26.772Z,10.31
2023-03-10T08:01:55.068Z,10.32
2023-03-10T08:04:25.057Z,10.35
2023-03-10T08:06:55.943Z,10.46
2023-03-10T08:09:24.142Z,10.52
2023-03-10T08:11:52.669Z,10.43
2023-03-10T08:14:24.153Z,10.49
2023-03-10T08:16:52.978Z,10.43
2023-03-10T08:19:21.253Z,10.58
2023-03-10T08:21:49.711Z,10.74
2023-03-10T08:24:19.658Z,10.83
2023-03-10T08:26:48.061Z,10.97
2023-03-10T08:29:16.236Z,11.06
2023-03-10T08:31:44.836Z,11.14
2023-03-10T08:34:13.688Z,11.04
2023-03-10T08:36:42.928Z,11.10
2023-03-10T08:39:13.259Z,11.00
2023-03-10T08:41:46.865Z,11.27
2023-03-10T08:44:17.846Z,10.94
2023-03-10T08:46:48.445Z,10.94
2023-03-10T08:49:18.836Z,11.00
2023-03-10T08:51:47.474Z,10.81
2023-03-10T08:54:19.027Z,10.97
2023-03-10T08:56:49.347Z,11.21
2023-03-10T08:59:21.749Z,11.36
2023-03-10T09:01:50.552Z,11.19
2023-03-10T09:04:19.223Z,11.42
2023-03-10T09:06:48.192Z,11.27
2023-03-10T09:09:16.567Z,11.18
2023-03-10T09:11:45.311Z,11.09
2023-03-10T09:14:17.671Z,11.13
2023-03-10T09:16:46.579Z,11.00
2023-03-10T09:19:16.095Z,11.04
2023-03-10T09:21:44.592Z,11.04
2023-03-10T09:24:14.495Z,11.02
2023-03-10T09:26:44.771Z,10.91
2023-03-10T09:29:15.122Z,10.92
2023-03-10T09:31:43.924Z,10.97
2023-03-10T09:34:13.088Z,10.98
2023-03-10T09:36:43.996Z,11.01
2023-03-10T09:39:12.286Z,11.04
2023-03-10T09:42:33.600Z,11.29
2023-03-10T09:45:25.765Z,11.47
2023-03-10T09:48:14.093Z,11.62
2023-03-10T09:50:45.085Z,11.60
2023-03-10T09:53:42.192Z,11.55
2023-03-10T09:56:15.872Z,11.74
2023-03-10T09:58:49.306Z,11.64
2023-03-10T10:01:23.918Z,11.46
2023-03-10T10:03:55.422Z,11.64
2023-03-10T10:06:28.694Z,11.67
2023-03-10T10:09:04.998Z,11.62
2023-03-10T10:11:34.571Z,11.95
2023-03-10T10:14:28.523Z,11.96
2023-03-10T10:17:04.413Z,12.02
2023-03-10T10:19:36.763Z,11.96
2023-03-10T10:22:11.684Z,12.13
2023-03-10T10:24:42.790Z,11.96
2023-03-10T10:27:11.240Z,12.01
2023-03-10T10:29:48.397Z,11.69
2023-03-10T10:32:20.440Z,11.45
2023-03-10T10:34:49.742Z,11.26
2023-03-10T10:37:29.475Z,11.13
2023-03-10T10:40:02.107Z,10.69
2023-03-10T10:42:33.848Z,10.21
2023-03-10T10:45:04.378Z,10.24
2023-03-10T10:47:37.163Z,10.37
2023-03-10T10:50:20.053Z,10.51
2023-03-10T10:52:50.913Z,10.62
2023-03-10T10:55:31.760Z,10.76
2023-03-10T10:58:01.987Z,10.78
2023-03-10T11:00:33.708Z,10.92
2023-03-10T11:03:04.136Z,10.69
2023-03-10T11:05:39.167Z,10.26
2023-03-10T11:08:19.794Z,9.80
2023-03-10T11:11:00.501Z,9.93
2023-03-10T11:13:38.113Z,10.04
2023-03-10T11:16:18.082Z,10.12
2023-03-10T11:18:58.758Z,10.28
2023-03-10T11:21:31.636Z,10.37
2023-03-10T11:24:07.306Z,10.66
2023-03-10T11:26:51.055Z,10.72
2023-03-10T11:29:33.359Z,10.82
2023-03-10T11:32:14.300Z,10.55
2023-03-10T11:34:50.967Z,10.23
2023-03-10T11:37:31.660Z,10.40
2023-03-10T11:40:19.908Z,10.35
2023-03-10T11:43:00.273Z,10.99
2023-03-10T11:45:40.167Z,11.17
2023-03-10T11:48:28.521Z,10.98
2023-03-10T11:51:04.002Z,11.07
2023-03-10T11:53:39.187Z,11.19
2023-03-10T11:56:10.744Z,11.42
2023-03-10T11:58:46.618Z,11.45
2023-03-10T12:01:19.254Z,11.58
2023-03-10T12:03:57.192Z,11.73
2023-03-10T12:06:34.671Z,11.70
2023-03-10T12:09:06.137Z,11.78
2023-03-10T12:11:37.983Z,11.69
2023-03-10T12:14:08.450Z,11.57
2023-03-10T12:16:39.663Z,11.69
2023-03-10T12:19:07.970Z,11.78
2023-03-10T12:21:38.525Z,11.94
2023-03-10T12:24:27.837Z,11.85
2023-03-10T12:27:06.023Z,11.88
2023-03-10T12:29:40.345Z,11.97
2023-03-10T12:32:43.099Z,12.27
2023-03-10T12:35:46.630Z,12.82
2023-03-10T12:38:44.838Z,12.68
2023-03-10T12:41:43.582Z,12.88
2023-03-10T12:44:36.451Z,12.53
2023-03-10T12:47:19.817Z,12.55
2023-03-10T12:49:57.483Z,12.27
2023-03-10T12:52:36.399Z,12.04
2023-03-10T12:55:25.668Z,12.07
2023-03-10T12:58:05.819Z,12.09
2023-03-10T13:00:49.929Z,12.08
2023-03-10T13:03:27.028Z,11.86
2023-03-10T13:06:06.248Z,11.69
2023-03-10T13:08:45.211Z,11.70
2023-03-10T13:11:38.949Z,11.72
2023-03-10T13:14:12.752Z,11.62
2023-03-10T13:16:41.964Z,11.51
2023-03-10T13:19:21.080Z,11.52
2023-03-10T13:21:51.163Z,11.42
2023-03-10T13:24:30.548Z,11.29
2023-03-10T13:27:16.674Z,10.92
2023-03-10T13:29:56.408Z,10.76
2023-03-10T13:32:26.017Z,10.55
2023-03-10T13:34:54.953Z,10.46
2023-03-10T13:37:27.794Z,10.56
2023-03-10T13:40:09.529Z,10.59
2023-03-10T13:42:44.366Z,10.76
2023-03-10T13:45:23.855Z,10.78
2023-03-10T13:47:53.179Z,10.72
2023-03-10T13:50:22.077Z,10.74
2023-03-10T13:52:57.404Z,10.72
2023-03-10T13:55:25.981Z,10.67
2023-03-10T13:57:57.166Z,10.50
2023-03-10T14:00:27.375Z,10.37
2023-03-10T14:02:57.642Z,10.32
2023-03-10T14:05:41.599Z,10.27
2023-03-10T14:08:23.278Z,10.05
2023-03-10T14:10:53.938Z,9.98
2023-03-10T14:13:43.720Z,9.89
2023-03-10T14:16:12.772Z,9.89
2023-03-10T14:18:43.708Z,9.91
2023-03-10T14:21:31.346Z,9.96
2023-03-10T14:24:16.276Z,9.82
2023-03-10T14:26:45.447Z,9.84
2023-03-10T14:29:18.823Z,9.92
2023-03-10T14:31:53.923Z,9.97
2023-03-10T14:34:22.309Z,9.94
2023-03-10T14:36:51.180Z,9.78
2023-03-10T14:39:19.630Z,10.01
2023-03-10T14:41:48.862Z,9.76
2023-03-10T14:44:18.605Z,9.69
2023-03-10T14:46:48.151Z,9.74
2023-03-10T14:49:18.190Z,9.72
2023-03-10T14:51:46.591Z,9.80
2023-03-10T14:54:19.252Z,9.57
2023-03-10T14:56:48.467Z,9.66
2023-03-10T14:59:20.334Z,9.45
2023-03-10T15:01:49.611Z,9.54
2023-03-10T15:04:21.037Z,9.59
2023-03-10T15:06:49.804Z,9.50
2023-03-10T15:09:19.933Z,9.54
2023-03-10T15:11:49.146Z,9.33
2023-03-10T15:14:21.309Z,9.49
2023-03-10T15:16:49.860Z,9.35
2023-03-10T15:19:22.282Z,9.48
2023-03-10T15:21:50.869Z,9.38
2023-03-10T15:24:19.643Z,9.48
2023-03-10T15:26:49.523Z,9.52
2023-03-10T15:29:22.593Z,9.35
2023-03-10T15:31:51.505Z,9.31
2023-03-10T15:34:20.780Z,9.30
2023-03-10T15:36:49.246Z,9.26
2023-03-10T15:39:30.748Z,9.29
2023-03-10T15:41:59.979Z,9.44
2023-03-10T15:44:29.786Z,9.43
2023-03-10T15:46:58.845Z,9.50
2023-03-10T15:49:30.034Z,9.54
2023-03-10T15:51:59.947Z,9.40
2023-03-10T15:54:28.170Z,9.30
2023-03-10T15:56:56.315Z,9.20
2023-03-10T15:59:25.065Z,9.21
2023-03-10T16:01:55.121Z,9.17
2023-03-10T16:04:25.240Z,9.12
2023-03-10T16:06:55.601Z,9.03
2023-03-10T16:09:34.599Z,8.88
2023-03-10T16:12:03.014Z,8.95
2023-03-10T16:14:31.610Z,8.87
2023-03-10T16:17:02.340Z,8.74
2023-03-10T16:19:30.685Z,8.56
2023-03-10T16:21:58.810Z,8.50
2023-03-10T16:24:27.332Z,8.36
2023-03-10T16:26:55.951Z,8.30
2023-03-10T16:29:24.261Z,8.13
2023-03-10T16:31:52.447Z,8.14
2023-03-10T16:34:22.855Z,8.10
2023-03-10T16:36:52.289Z,8.05
2023-03-10T16:39:20.599Z,8.07
2023-03-10T16:41:50.424Z,8.09
2023-03-10T16:44:19.071Z,8.14
2023-03-10T16:46:48.110Z,8.10
2023-03-10T16:49:17.624Z,7.96
2023-03-10T16:51:48.423Z,8.08
2023-03-10T16:54:18.944Z,8.06
2023-03-10T16:56:49.354Z,7.98
2023-03-10T16:59:20.481Z,7.95
2023-03-10T17:01:50.139Z,7.93
2023-03-10T17:04:19.272Z,8.00
2023-03-10T17:06:51.707Z,7.90
2023-03-10T17:09:19.965Z,7.93
2023-03-10T17:11:54.665Z,7.92
2023-03-10T17:14:23.939Z,7.80
2023-03-10T17:16:52.633Z,7.81
2023-03-10T17:19:24.438Z,7.73
2023-03-10T17:21:56.071Z,7.72
2023-03-10T17:24:24.834Z,7.75
2023-03-10T17:26:53.183Z,7.67
2023-03-10T17:29:21.669Z,7.58
2023-03-10T17:31:52.950Z,7.52
2023-03-10T17:34:21.775Z,7.53
2023-03-10T17:36:52.520Z,7.45
2023-03-10T17:39:24.349Z,7.45
2023-03-10T17:41:54.643Z,7.45
2023-03-10T17:44:22.831Z,7.46
2023-03-10T17:46:52.770Z,7.32
2023-03-10T17:49:21.046Z,7.17
2023-03-10T17:51:49.562Z,7.17
2023-03-10T17:54:20.982Z,7.16
2023-03-10T17:56:51.584Z,7.13
2023-03-10T17:59:20.473Z,7.03
2023-03-10T18:01:50.107Z,7.02
2023-03-10T18:04:19.697Z,6.98
2023-03-10T18:06:48.617Z,6.87
2023-03-10T18:09:18.364Z,6.93
2023-03-10T18:11:47.662Z,6.82
2023-03-10T18:14:19.260Z,6.83
2023-03-10T18:16:49.368Z,6.75
2023-03-10T18:19:21.405Z,6.57
2023-03-10T18:21:51.484Z,6.59
2023-03-10T18:24:20.314Z,6.44
2023-03-10T18:26:48.636Z,6.30
2023-03-10T18:29:18.928Z,6.13
2023-03-10T18:31:47.751Z,6.01
2023-03-10T18:34:16.081Z,5.72
2023-03-10T18:36:44.660Z,5.70
2023-03-10T18:39:14.483Z,5.47
2023-03-10T18:41:48.958Z,5.38
2023-03-10T18:44:19.039Z,4.96
2023-03-10T18:46:47.377Z,4.91
2023-03-10T18:49:15.917Z,4.53
2023-03-10T18:51:45.638Z,4.46
2023-03-10T18:54:14.420Z,4.29
2023-03-10T18:56:44.426Z,4.17
2023-03-10T18:59:13.054Z,4.05
2023-03-10T19:01:43.393Z,3.80
2023-03-10T19:04:12.122Z,3.69
2023-03-10T19:06:40.605Z,3.60
2023-03-10T19:09:09.416Z,3.49
2023-03-10T19:11:39.865Z,3.41
2023-03-10T19:14:09.352Z,3.42
2023-03-10T19:16:39.904Z,3.37
2023-03-10T19:19:10.129Z,3.37
2023-03-10T19:21:38.765Z,3.22
2023-03-10T19:24:08.103Z,3.28
2023-03-10T19:26:36.509Z,3.26
2023-03-10T19:29:06.331Z,3.16
2023-03-10T19:31:34.667Z,3.05
2023-03-10T19:34:02.940Z,2.97
2023-03-10T19:36:32.726Z,2.96
2023-03-10T19:39:00.799Z,2.93
2023-03-10T19:41:28.882Z,2.86
2023-03-10T19:43:57.055Z,2.88
2023-03-10T19:46:25.363Z,2.85
2023-03-10T19:48:54.614Z,2.82
2023-03-10T19:51:25.252Z,2.82
2023-03-10T19:53:56.985Z,2.82
2023-03-10T19:56:26.702Z,2.84
2023-03-10T19:58:55.099Z,2.87
2023-03-10T20:01:25.507Z,2.87
2023-03-10T20:03:55.169Z,2.86
2023-03-10T20:06:23.644Z,2.79
2023-03-10T20:08:54.905Z,2.84
2023-03-10T20:11:23.498Z,2.80
2023-03-10T20:13:54.538Z,2.78
2023-03-10T20:16:24.419Z,2.79
2023-03-10T20:18:52.999Z,2.79
2023-03-10T20:21:21.360Z,2.81
2023-03-10T20:23:49.820Z,2.79
2023-03-10T20:26:19.967Z,2.76
2023-03-10T20:28:50.404Z,2.77
2023-03-10T20:31:21.036Z,2.75
2023-03-10T20:33:49.961Z,2.72
2023-03-10T20:36:20.998Z,2.70
2023-03-10T20:38:49.834Z,2.74
2023-03-10T20:41:24.753Z,2.76
2023-03-10T20:43:55.591Z,2.70
2023-03-10T20:46:24.917Z,2.67
2023-03-10T20:48:53.600Z,2.66
2023-03-10T20:51:22.742Z,2.63
2023-03-10T20:53:52.061Z,2.58
2023-03-10T20:56:22.028Z,2.62
2023-03-10T20:58:50.854Z,2.59
2023-03-10T21:01:23.001Z,2.53
2023-03-10T21:03:54.920Z,2.53
2023-03-10T21:06:23.764Z,2.50
2023-03-10T21:08:52.319Z,2.59
2023-03-10T21:11:23.031Z,2.56
2023-03-10T21:13:52.004Z,2.57
2023-03-10T21:16:20.946Z,2.52
2023-03-10T21:18:49.440Z,2.48
2023-03-10T21:21:18.195Z,2.42
2023-03-10T21:23:46.761Z,2.43
2023-03-10T21:26:17.387Z,2.35
2023-03-10T21:28:47.251Z,2.31
2023-03-10T21:31:16.936Z,2.29
2023-03-10T21:33:46.356Z,2.30
2023-03-10T21:36:16.335Z,2.26
2023-03-10T21:38:47.419Z,2.25
2023-03-10T21:41:16.645Z,2.25
2023-03-10T21:43:48.060Z,2.24
2023-03-10T21:46:16.569Z,2.22
2023-03-10T21:48:45.332Z,2.20
2023-03-10T21:51:16.439Z,2.24
2023-03-10T21:53:45.509Z,2.23
2023-03-10T21:56:17.095Z,2.21
2023-03-10T21:58:47.809Z,2.23
2023-03-10T22:01:19.413Z,2.22
2023-03-10T22:03:47.897Z,2.22
2023-03-10T22:06:16.517Z,2.23
2023-03-10T22:08:44.855Z,2.29
2023-03-10T22:11:14.287Z,2.28
2023-03-10T22:13:42.911Z,2.23
2023-03-10T22:16:18.197Z,2.29
2023-03-10T22:18:49.558Z,2.23
2023-03-10T22:21:18.773Z,2.25
2023-03-10T22:23:47.183Z,2.20
2023-03-10T22:26:16.784Z,2.17
2023-03-10T22:28:46.433Z,2.18
2023-03-10T22:31:16.165Z,2.18
2023-03-10T22:33:44.584Z,2.17
2023-03-10T22:36:16.469Z,2.16
2023-03-10T22:38:45.114Z,2.14
2023-03-10T22:41:14.896Z,2.14
2023-03-10T22:43:44.298Z,2.14
2023-03-10T22:46:14.616Z,2.19
2023-03-10T22:48:45.034Z,2.18
2023-03-10T22:51:17.347Z,2.17
2023-03-10T22:53:47.434Z,2.14
2023-03-10T22:56:18.114Z,2.17
2023-03-10T22:58:46.736Z,2.15
2023-03-10T23:01:15.498Z,2.16
2023-03-10T23:03:45.340Z,2.17
2023-03-10T23:06:15.116Z,2.15
2023-03-10T23:08:46.920Z,2.14
2023-03-10T23:11:16.776Z,2.15
2023-03-10T23:13:45.845Z,2.16
2023-03-10T23:16:14.402Z,2.03
2023-03-10T23:18:42.804Z,1.97
2023-03-10T23:21:13.361Z,1.96
2023-03-10T23:23:43.810Z,1.92
2023-03-10T23:26:12.937Z,1.93
2023-03-10T23:28:42.422Z,1.95
2023-03-10T23:31:15.661Z,1.94
2023-03-10T23:33:45.625Z,1.86
2023-03-10T23:36:15.818Z,1.83
2023-03-10T23:38:44.236Z,1.87
2023-03-10T23:41:12.691Z,1.90
2023-03-10T23:43:41.003Z,1.94
2023-03-10T23:46:10.447Z,1.95
2023-03-10T23:48:38.736Z,1.99
2023-03-10T23:51:16.129Z,1.91
2023-03-10T23:53:45.594Z,1.91
2023-03-10T23:56:13.998Z,1.86
2023-03-10T23:58:44.818Z,1.85
